createdAt,value
2023-02-16T00:01:25.916Z,100.00
2023-02-16T00:03:55.569Z,100.00
2023-02-16T00:06:23.454Z,100.00
2023-02-16T00:08:53.293Z,100.00
2023-02-16T00:11:47.496Z,100.00
2023-02-16T00:14:15.318Z,100.00
2023-02-16T00:16:43.262Z,100.00
2023-02-16T00:19:19.695Z,100.00
2023-02-16T00:21:47.582Z,100.00
2023-02-16T00:24:15.330Z,100.00
2023-02-16T00:26:45.504Z,100.00
2023-02-16T00:29:19.706Z,100.00
2023-02-16T00:31:47.540Z,100.00
2023-02-16T00:34:31.549Z,100.00
2023-02-16T00:37:02.837Z,100.00
2023-02-16T00:39:31.044Z,100.00
2023-02-16T00:42:04.730Z,100.00
2023-02-16T00:44:36.614Z,100.00
2023-02-16T00:47:11.508Z,100.00
2023-02-16T00:49:39.165Z,100.00
2023-02-16T00:52:23.987Z,100.00
2023-02-16T00:54:51.621Z,100.00
2023-02-16T00:57:21.368Z,100.00
2023-02-16T00:59:56.008Z,100.00
2023-02-16T01:02:23.711Z,100.00
2023-02-16T01:04:51.677Z,100.00
2023-02-16T01:07:38.741Z,100.00
2023-02-16T01:10:25.222Z,100.00
2023-02-16T01:12:54.317Z,100.00
2023-02-16T01:15:25.560Z,100.00
2023-02-16T01:17:53.652Z,100.00
2023-02-16T01:20:25.452Z,100.00
2023-02-16T01:22:53.316Z,100.00
2023-02-16T01:25:21.441Z,100.00
2023-02-16T01:27:50.273Z,100.00
2023-02-16T01:30:21.625Z,100.00
2023-02-16T01:32:51.855Z,100.00
2023-02-16T01:35:19.909Z,100.00
2023-02-16T01:37:47.675Z,100.00
2023-02-16T01:40:31.460Z,100.00
2023-02-16T01:43:04.977Z,100.00
2023-02-16T01:45:36.811Z,100.00
2023-02-16T01:48:08.109Z,100.00
2023-02-16T01:50:44.777Z,100.00
2023-02-16T01:53:21.327Z,100.00
2023-02-16T01:55:53.541Z,100.00
2023-02-16T01:58:32.620Z,100.00
2023-02-16T02:01:33.762Z,100.00
2023-02-16T02:04:19.164Z,100.00
2023-02-16T02:06:47.989Z,100.00
2023-02-16T02:09:20.812Z,100.00
2023-02-16T02:11:53.616Z,100.00
2023-02-16T02:14:25.208Z,100.00
2023-02-16T02:16:57.034Z,100.00
2023-02-16T02:19:25.816Z,100.00
2023-02-16T02:22:38.150Z,100.00
2023-02-16T02:25:41.559Z,100.00
2023-02-16T02:28:20.375Z,100.00
2023-02-16T02:30:53.659Z,100.00
2023-02-16T02:33:33.944Z,100.00
2023-02-16T02:36:16.653Z,100.00
2023-02-16T02:38:59.574Z,100.00
2023-02-16T02:41:47.238Z,100.00
2023-02-16T02:44:21.263Z,100.00
2023-02-16T02:46:50.767Z,100.00
2023-02-16T02:49:19.894Z,100.00
2023-02-16T02:51:48.193Z,100.00
2023-02-16T02:54:37.709Z,100.00
2023-02-16T02:57:32.384Z,100.00
2023-02-16T03:00:24.649Z,100.00
2023-02-16T03:02:56.306Z,100.00
2023-02-16T03:05:27.364Z,100.00
2023-02-16T03:08:14.198Z,100.00
2023-02-16T03:11:04.082Z,100.00
2023-02-16T03:13:36.908Z,100.00
2023-02-16T03:16:12.277Z,100.00
2023-02-16T03:18:59.890Z,100.00
2023-02-16T03:21:47.111Z,100.00
2023-02-16T03:24:41.884Z,100.00
2023-02-16T03:27:28.233Z,100.00
2023-02-16T03:29:57.851Z,100.00
2023-02-16T03:32:28.574Z,100.00
2023-02-16T03:34:56.365Z,100.00
2023-02-16T03:37:24.343Z,100.00
2023-02-16T03:40:09.745Z,100.00
2023-02-16T03:42:37.575Z,100.00
2023-02-16T03:45:06.096Z,100.00
2023-02-16T03:47:35.218Z,100.00
2023-02-16T03:50:03.216Z,100.00
2023-02-16T03:52:31.034Z,100.00
2023-02-16T03:55:00.437Z,100.00
2023-02-16T03:57:28.260Z,100.00
2023-02-16T03:59:57.714Z,100.00
2023-02-16T04:02:27.465Z,100.00
2023-02-16T04:04:56.679Z,100.00
2023-02-16T04:07:24.426Z,100.00
2023-02-16T04:09:52.235Z,100.00
2023-02-16T04:12:37.051Z,100.00
2023-02-16T04:15:07.064Z,100.00
2023-02-16T04:17:34.901Z,100.00
2023-02-16T04:20:04.623Z,100.00
2023-02-16T04:22:32.732Z,100.00
2023-02-16T04:25:00.706Z,100.00
2023-02-16T04:27:28.493Z,100.00
2023-02-16T04:29:56.311Z,100.00
2023-02-16T04:32:24.192Z,100.00
2023-02-16T04:34:52.024Z,100.00
2023-02-16T04:37:21.215Z,100.00
2023-02-16T04:39:48.988Z,100.00
2023-02-16T04:42:17.008Z,100.00
2023-02-16T04:44:44.928Z,100.00
2023-02-16T04:47:12.696Z,100.00
2023-02-16T04:49:40.563Z,100.00
2023-02-16T04:52:08.666Z,100.00
2023-02-16T04:54:37.840Z,100.00
2023-02-16T04:57:05.915Z,100.00
2023-02-16T04:59:33.775Z,100.00
2023-02-16T05:02:01.597Z,100.00
2023-02-16T05:04:29.737Z,100.00
2023-02-16T05:06:57.691Z,100.00
2023-02-16T05:09:25.688Z,100.00
2023-02-16T05:12:17.508Z,100.00
2023-02-16T05:14:46.020Z,100.00
2023-02-16T05:17:16.171Z,100.00
2023-02-16T05:19:46.500Z,100.00
2023-02-16T05:22:15.283Z,100.00
2023-02-16T05:24:43.611Z,100.00
2023-02-16T05:27:16.872Z,100.00
2023-02-16T05:29:44.731Z,100.00
2023-02-16T05:32:12.558Z,100.00
2023-02-16T05:34:40.297Z,100.00
2023-02-16T05:37:08.253Z,100.00
2023-02-16T05:39:36.124Z,100.00
2023-02-16T05:42:04.172Z,100.00
2023-02-16T05:44:33.388Z,100.00
2023-02-16T05:47:01.158Z,100.00
2023-02-16T05:49:29.230Z,100.00
2023-02-16T05:51:57.046Z,100.00
2023-02-16T05:54:25.111Z,100.00
2023-02-16T05:56:53.631Z,100.00
2023-02-16T05:59:21.656Z,100.00
2023-02-16T06:01:52.195Z,100.00
2023-02-16T06:04:21.954Z,100.00
2023-02-16T06:06:50.418Z,100.00
2023-02-16T06:09:18.303Z,100.00
2023-02-16T06:11:46.146Z,100.00
2023-02-16T06:14:15.899Z,100.00
2023-02-16T06:16:45.378Z,100.00
2023-02-16T06:19:15.501Z,100.00
2023-02-16T06:21:43.609Z,100.00
2023-02-16T06:24:13.262Z,100.00
2023-02-16T06:26:41.282Z,100.00
2023-02-16T06:29:11.278Z,100.00
2023-02-16T06:31:39.190Z,100.00
2023-02-16T06:34:07.147Z,100.00
2023-02-16T06:36:36.370Z,100.00
2023-02-16T06:39:04.575Z,100.00
2023-02-16T06:41:34.289Z,100.00
2023-02-16T06:44:03.781Z,100.00
2023-02-16T06:46:31.804Z,100.00
2023-02-16T06:49:00.032Z,100.00
2023-02-16T06:51:28.127Z,100.00
2023-02-16T06:53:57.337Z,100.00
2023-02-16T06:56:25.727Z,100.00
2023-02-16T06:58:53.530Z,100.00
2023-02-16T07:01:23.415Z,100.00
2023-02-16T07:03:51.576Z,100.00
2023-02-16T07:06:19.715Z,100.00
2023-02-16T07:08:47.631Z,100.00
2023-02-16T07:11:18.238Z,100.00
2023-02-16T07:13:46.516Z,100.00
2023-02-16T07:16:15.403Z,100.00
2023-02-16T07:18:43.719Z,100.00
2023-02-16T07:21:11.616Z,100.00
2023-02-16T07:23:39.255Z,100.00
2023-02-16T07:26:07.028Z,100.00
2023-02-16T07:28:36.097Z,100.00
2023-02-16T07:31:08.446Z,100.00
2023-02-16T07:33:36.335Z,100.00
2023-02-16T07:36:04.499Z,100.00
2023-02-16T07:38:32.264Z,100.00
2023-02-16T07:41:00.357Z,100.00
2023-02-16T07:43:28.125Z,100.00
2023-02-16T07:45:57.432Z,100.00
2023-02-16T07:48:25.398Z,100.00
2023-02-16T07:50:53.264Z,100.00
2023-02-16T07:53:20.945Z,100.00
2023-02-16T07:55:48.643Z,100.00
2023-02-16T07:58:27.385Z,100.00
2023-02-16T08:00:57.881Z,100.00
2023-02-16T08:03:25.677Z,100.00
2023-02-16T08:05:53.514Z,100.00
2023-02-16T08:08:21.130Z,100.00
2023-02-16T08:10:49.046Z,100.00
2023-02-16T08:13:16.761Z,100.00
2023-02-16T08:15:45.136Z,100.00
2023-02-16T08:18:15.151Z,100.00
2023-02-16T08:21:01.466Z,100.00
2023-02-16T08:23:31.334Z,100.00
2023-02-16T08:25:59.582Z,100.00
2023-02-16T08:28:28.835Z,100.00
2023-02-16T08:30:56.945Z,100.00
2023-02-16T08:33:26.118Z,100.00
2023-02-16T08:35:54.041Z,100.00
2023-02-16T08:38:22.828Z,100.00
2023-02-16T08:40:50.877Z,100.00
2023-02-16T08:43:18.750Z,100.00
2023-02-16T08:45:47.504Z,100.00
2023-02-16T08:48:16.581Z,100.00
2023-02-16T08:50:53.173Z,100.00
2023-02-16T08:53:23.016Z,100.00
2023-02-16T08:55:55.658Z,100.00
2023-02-16T08:58:24.396Z,100.00
2023-02-16T09:00:52.301Z,100.00
2023-02-16T09:03:20.713Z,100.00
2023-02-16T09:05:51.124Z,100.00
2023-02-16T09:08:19.150Z,100.00
2023-02-16T09:10:46.859Z,100.00
2023-02-16T09:13:16.099Z,100.00
2023-02-16T09:15:44.008Z,100.00
2023-02-16T09:18:12.611Z,100.00
2023-02-16T09:20:41.123Z,100.00
2023-02-16T09:23:12.284Z,100.00
2023-02-16T09:25:41.783Z,100.00
2023-02-16T09:28:09.610Z,100.00
2023-02-16T09:30:39.356Z,100.00
2023-02-16T09:33:07.725Z,100.00
2023-02-16T09:35:35.440Z,100.00
2023-02-16T09:38:03.591Z,100.00
2023-02-16T09:40:32.666Z,100.00
2023-02-16T09:43:09.381Z,100.00
2023-02-16T09:45:42.893Z,100.00
2023-02-16T09:48:30.313Z,100.00
2023-02-16T09:51:01.343Z,100.00
2023-02-16T09:53:39.407Z,100.00
2023-02-16T09:56:18.850Z,100.00
2023-02-16T09:58:52.921Z,100.00
2023-02-16T10:01:31.790Z,100.00
2023-02-16T10:04:17.374Z,100.00
2023-02-16T10:06:58.296Z,100.00
2023-02-16T10:09:27.741Z,100.00
2023-02-16T10:12:03.450Z,100.00
2023-02-16T10:14:37.059Z,100.00
2023-02-16T10:17:15.159Z,100.00
2023-02-16T10:19:49.310Z,100.00
2023-02-16T10:22:20.921Z,100.00
2023-02-16T10:25:00.236Z,100.00
2023-02-16T10:27:37.925Z,100.00
2023-02-16T10:30:13.457Z,100.00
2023-02-16T10:32:53.898Z,100.00
2023-02-16T10:35:31.416Z,98.55
2023-02-16T10:38:05.955Z,93.57
2023-02-16T10:40:45.110Z,93.30
2023-02-16T10:43:19.099Z,88.44
2023-02-16T10:45:52.335Z,86.56
2023-02-16T10:48:21.761Z,80.65
2023-02-16T10:50:58.382Z,79.09
2023-02-16T10:53:39.121Z,75.78
2023-02-16T10:56:29.891Z,75.66
2023-02-16T10:59:00.285Z,73.72
2023-02-16T11:01:36.006Z,73.86
2023-02-16T11:04:04.044Z,73.95
2023-02-16T11:06:31.880Z,71.44
2023-02-16T11:09:01.894Z,71.22
2023-02-16T11:11:37.761Z,73.49
2023-02-16T11:14:09.294Z,72.54
2023-02-16T11:16:37.229Z,73.20
2023-02-16T11:19:08.842Z,71.77
2023-02-16T11:21:46.028Z,72.00
2023-02-16T11:24:25.124Z,69.72
2023-02-16T11:27:04.563Z,68.54
2023-02-16T11:29:34.240Z,68.30
2023-02-16T11:32:10.219Z,67.42
2023-02-16T11:34:42.404Z,66.10
2023-02-16T11:41:26.878Z,65.84
2023-02-16T11:43:55.146Z,65.99
2023-02-16T11:46:24.909Z,65.59
2023-02-16T11:48:53.404Z,65.62
2023-02-16T11:51:33.084Z,65.24
2023-02-16T11:54:04.015Z,64.86
2023-02-16T11:56:33.384Z,65.46
2023-02-16T11:59:13.829Z,64.28
2023-02-16T12:01:59.917Z,65.57
2023-02-16T12:04:44.030Z,67.13
2023-02-16T12:07:26.890Z,66.33
2023-02-16T12:10:03.479Z,63.02
2023-02-16T12:12:39.986Z,64.38
2023-02-16T12:15:19.264Z,65.11
2023-02-16T12:18:06.136Z,63.84
2023-02-16T12:20:42.947Z,64.28
2023-02-16T12:23:23.563Z,64.46
2023-02-16T12:26:02.327Z,64.11
2023-02-16T12:28:41.905Z,64.07
2023-02-16T12:31:21.990Z,63.94
2023-02-16T12:33:59.386Z,63.84
2023-02-16T12:36:53.111Z,65.67
2023-02-16T12:39:28.707Z,65.18
2023-02-16T12:42:09.432Z,66.77
2023-02-16T12:44:42.557Z,66.51
2023-02-16T12:47:15.397Z,67.20
2023-02-16T12:49:53.310Z,67.62
2023-02-16T12:52:30.349Z,66.20
2023-02-16T12:55:12.632Z,66.39
2023-02-16T12:57:46.091Z,67.77
2023-02-16T13:00:22.505Z,68.57
2023-02-16T13:02:56.759Z,69.59
2023-02-16T13:05:31.479Z,67.74
2023-02-16T13:08:06.687Z,68.39
2023-02-16T13:10:38.113Z,68.09
2023-02-16T13:13:10.448Z,68.15
2023-02-16T13:15:41.363Z,67.99
2023-02-16T13:18:20.507Z,66.65
2023-02-16T13:20:53.817Z,66.36
2023-02-16T13:23:44.717Z,66.12
2023-02-16T13:26:33.976Z,64.63
2023-02-16T13:29:27.185Z,64.38
2023-02-16T13:32:07.055Z,63.97
2023-02-16T13:34:53.527Z,62.05
2023-02-16T13:37:37.407Z,63.26
2023-02-16T13:40:28.855Z,61.91
2023-02-16T13:43:12.316Z,63.29
2023-02-16T13:45:43.532Z,62.08
2023-02-16T13:48:17.255Z,62.85
2023-02-16T13:50:47.113Z,62.23
2023-02-16T13:53:21.989Z,61.93
2023-02-16T13:55:50.707Z,61.75
2023-02-16T13:58:30.782Z,61.76
2023-02-16T14:00:58.955Z,61.49
2023-02-16T14:03:39.285Z,61.63
2023-02-16T14:06:32.186Z,61.03
2023-02-16T14:09:46.458Z,61.33
2023-02-16T14:12:19.701Z,60.22
2023-02-16T14:14:58.556Z,60.13
2023-02-16T14:17:29.347Z,59.06
2023-02-16T14:19:58.906Z,57.95
2023-02-16T14:22:34.288Z,57.41
2023-02-16T14:25:06.577Z,57.05
2023-02-16T14:27:47.622Z,58.46
2023-02-16T14:30:27.202Z,57.04
2023-02-16T14:33:00.317Z,56.88
2023-02-16T14:35:33.837Z,56.55
2023-02-16T14:38:03.161Z,56.85
2023-02-16T14:40:49.261Z,56.63
2023-02-16T14:43:31.558Z,57.22
2023-02-16T14:46:35.081Z,57.17
2023-02-16T14:49:25.850Z,57.65
2023-02-16T14:52:29.947Z,57.26
2023-02-16T14:55:24.041Z,57.06
2023-02-16T14:57:57.398Z,57.59
2023-02-16T15:00:35.651Z,57.22
2023-02-16T15:03:14.411Z,57.62
2023-02-16T15:05:44.156Z,57.29
2023-02-16T15:08:17.287Z,57.50
2023-02-16T15:10:47.073Z,58.10
2023-02-16T15:13:22.195Z,57.50
2023-02-16T15:15:53.424Z,59.42
2023-02-16T15:18:25.204Z,58.61
2023-02-16T15:20:55.770Z,58.87
2023-02-16T15:23:25.738Z,58.26
2023-02-16T15:25:56.842Z,57.75
2023-02-16T15:28:27.623Z,58.03
2023-02-16T15:30:58.264Z,58.14
2023-02-16T15:33:37.087Z,58.07
2023-02-16T15:36:08.896Z,58.86
2023-02-16T15:38:39.058Z,58.97
2023-02-16T15:41:08.885Z,58.79
2023-02-16T15:43:40.451Z,58.71
2023-02-16T15:46:15.858Z,58.71
2023-02-16T15:48:43.723Z,60.02
2023-02-16T15:51:16.605Z,59.25
2023-02-16T15:53:51.328Z,59.53
2023-02-16T15:56:28.893Z,59.61
2023-02-16T15:59:00.806Z,59.53
2023-02-16T16:01:33.954Z,60.02
2023-02-16T16:04:04.276Z,60.82
2023-02-16T16:06:38.049Z,60.59
2023-02-16T16:09:08.413Z,61.35
2023-02-16T16:11:38.013Z,61.33
2023-02-16T16:14:08.140Z,61.93
2023-02-16T16:16:36.755Z,61.86
2023-02-16T16:19:09.585Z,62.49
2023-02-16T16:21:48.197Z,62.87
2023-02-16T16:24:33.614Z,63.05
2023-02-16T16:27:05.397Z,63.24
2023-02-16T16:29:37.287Z,63.63
2023-02-16T16:32:07.239Z,63.81
2023-02-16T16:34:37.728Z,63.99
2023-02-16T16:37:08.346Z,66.09
2023-02-16T16:39:40.367Z,68.21
2023-02-16T16:42:23.513Z,72.01
2023-02-16T16:45:02.289Z,77.29
2023-02-16T16:47:34.397Z,81.27
2023-02-16T16:50:06.688Z,83.93
2023-02-16T16:52:43.016Z,85.89
2023-02-16T16:55:27.048Z,88.21
2023-02-16T16:57:56.700Z,89.47
2023-02-16T17:00:27.856Z,89.06
2023-02-16T17:02:55.565Z,89.81
2023-02-16T17:05:23.294Z,93.42
2023-02-16T17:07:51.782Z,94.53
2023-02-16T17:10:22.293Z,94.21
2023-02-16T17:12:53.982Z,95.43
2023-02-16T17:15:38.885Z,97.29
2023-02-16T17:18:08.191Z,100.00
2023-02-16T17:20:35.874Z,100.00
2023-02-16T17:23:05.313Z,100.00
2023-02-16T17:25:34.858Z,98.83
2023-02-16T17:28:03.589Z,100.00
2023-02-16T17:30:31.799Z,100.00
2023-02-16T17:33:00.993Z,100.00
2023-02-16T17:35:29.253Z,100.00
2023-02-16T17:37:57.030Z,100.00
2023-02-16T17:40:26.063Z,100.00
2023-02-16T17:42:53.791Z,100.00
2023-02-16T17:45:23.992Z,100.00
2023-02-16T17:47:53.140Z,100.00
2023-02-16T17:50:22.296Z,100.00
2023-02-16T17:52:50.024Z,100.00
2023-02-16T17:55:17.804Z,100.00
2023-02-16T17:57:45.572Z,100.00
2023-02-16T18:00:18.307Z,100.00
2023-02-16T18:02:45.971Z,100.00
2023-02-16T18:05:13.871Z,100.00
2023-02-16T18:07:42.896Z,100.00
2023-02-16T18:10:18.465Z,100.00
2023-02-16T18:12:46.400Z,100.00
2023-02-16T18:15:14.505Z,100.00
2023-02-16T18:17:42.655Z,100.00
2023-02-16T18:20:15.748Z,98.04
2023-02-16T18:22:44.797Z,97.35
2023-02-16T18:25:12.620Z,94.44
2023-02-16T18:27:40.312Z,93.66
2023-02-16T18:30:09.897Z,91.79
2023-02-16T18:32:37.834Z,88.24
2023-02-16T18:35:06.439Z,86.15
2023-02-16T18:37:34.105Z,84.90
2023-02-16T18:40:03.461Z,84.40
2023-02-16T18:42:31.199Z,87.47
2023-02-16T18:44:58.905Z,87.99
2023-02-16T18:47:26.584Z,84.62
2023-02-16T18:49:54.393Z,81.69
2023-02-16T18:52:22.126Z,79.44
2023-02-16T18:54:49.822Z,79.42
2023-02-16T18:57:18.813Z,77.38
2023-02-16T18:59:46.529Z,78.22
2023-02-16T19:02:14.163Z,76.91
2023-02-16T19:04:41.941Z,77.94
2023-02-16T19:07:09.838Z,77.67
2023-02-16T19:09:37.599Z,76.18
2023-02-16T19:12:05.656Z,75.88
2023-02-16T19:14:34.923Z,75.58
2023-02-16T19:17:02.615Z,74.43
2023-02-16T19:19:31.093Z,74.12
2023-02-16T19:21:58.821Z,74.95
2023-02-16T19:24:26.672Z,73.88
2023-02-16T19:26:54.560Z,74.21
2023-02-16T19:29:22.259Z,73.91
2023-02-16T19:31:51.373Z,74.01
2023-02-16T19:34:19.085Z,74.10
2023-02-16T19:36:46.807Z,72.13
2023-02-16T19:39:14.535Z,72.14
2023-02-16T19:41:43.946Z,72.93
2023-02-16T19:44:13.902Z,72.05
2023-02-16T19:46:42.545Z,71.67
2023-02-16T19:49:13.900Z,71.78
2023-02-16T19:51:41.586Z,70.47
2023-02-16T19:54:09.354Z,70.76
2023-02-16T19:56:40.404Z,71.59
2023-02-16T19:59:09.715Z,70.56
2023-02-16T20:01:37.458Z,70.19
2023-02-16T20:04:05.531Z,70.49
2023-02-16T20:06:39.085Z,68.93
2023-02-16T20:09:06.906Z,68.96
2023-02-16T20:11:35.102Z,69.34
2023-02-16T20:14:02.926Z,68.33
2023-02-16T20:16:30.944Z,67.91
2023-02-16T20:19:00.282Z,68.23
2023-02-16T20:21:29.767Z,67.85
2023-02-16T20:24:01.234Z,68.23
2023-02-16T20:26:33.880Z,68.08
2023-02-16T20:29:04.389Z,69.10
2023-02-16T20:31:35.717Z,69.64
2023-02-16T20:34:04.197Z,68.81
2023-02-16T20:36:32.523Z,67.73
2023-02-16T20:39:01.497Z,68.49
2023-02-16T20:41:29.207Z,68.69
2023-02-16T20:43:56.884Z,68.28
2023-02-16T20:46:25.929Z,68.26
2023-02-16T20:48:53.938Z,68.08
2023-02-16T20:51:21.867Z,68.58
2023-02-16T20:53:49.898Z,67.82
2023-02-16T20:56:21.589Z,68.12
2023-02-16T20:58:50.452Z,68.93
2023-02-16T21:01:22.043Z,68.25
2023-02-16T21:03:50.104Z,68.67
2023-02-16T21:06:18.295Z,68.73
2023-02-16T21:08:46.359Z,69.41
2023-02-16T21:11:14.756Z,68.57
2023-02-16T21:13:44.006Z,68.79
2023-02-16T21:16:13.787Z,68.41
2023-02-16T21:18:43.507Z,68.72
2023-02-16T21:21:15.334Z,68.58
2023-02-16T21:23:43.460Z,67.32
2023-02-16T21:26:11.488Z,68.01
2023-02-16T21:28:39.508Z,68.34
2023-02-16T21:31:10.950Z,67.20
2023-02-16T21:33:39.402Z,67.57
2023-02-16T21:36:09.323Z,67.52
2023-02-16T21:38:40.140Z,68.04
2023-02-16T21:41:24.580Z,68.69
2023-02-16T21:43:58.113Z,68.27
2023-02-16T21:46:28.099Z,68.08
2023-02-16T21:48:57.187Z,67.71
2023-02-16T21:51:27.919Z,66.92
2023-02-16T21:53:55.748Z,68.06
2023-02-16T21:56:30.366Z,67.50
2023-02-16T21:58:58.581Z,67.19
2023-02-16T22:01:29.620Z,66.84
2023-02-16T22:03:59.174Z,67.55
2023-02-16T22:06:28.604Z,67.70
2023-02-16T22:08:56.683Z,67.86
2023-02-16T22:11:24.451Z,68.11
2023-02-16T22:13:55.027Z,68.30
2023-02-16T22:16:23.310Z,67.64
2023-02-16T22:18:57.572Z,67.06
2023-02-16T22:21:25.349Z,66.69
2023-02-16T22:23:53.068Z,66.57
2023-02-16T22:26:23.532Z,66.89
2023-02-16T22:28:51.531Z,67.10
2023-02-16T22:31:19.368Z,66.75
2023-02-16T22:33:47.240Z,66.11
2023-02-16T22:36:16.743Z,66.64
2023-02-16T22:38:45.294Z,66.04
2023-02-16T22:41:13.395Z,66.10
2023-02-16T22:43:41.442Z,66.37
2023-02-16T22:46:13.877Z,66.81
2023-02-16T22:48:41.545Z,66.90
2023-02-16T22:51:12.006Z,69.43
2023-02-16T22:53:41.080Z,72.30
2023-02-16T22:56:10.629Z,71.77
2023-02-16T22:58:38.270Z,71.26
2023-02-16T23:01:12.061Z,72.19
2023-02-16T23:03:40.001Z,69.63
2023-02-16T23:06:12.832Z,69.41
2023-02-16T23:08:42.123Z,69.02
2023-02-16T23:11:09.756Z,68.41
2023-02-16T23:13:37.798Z,68.15
2023-02-16T23:16:08.500Z,68.26
2023-02-16T23:18:36.365Z,67.58
2023-02-16T23:21:08.540Z,70.65
2023-02-16T23:23:36.463Z,70.01
2023-02-16T23:26:07.433Z,69.22
2023-02-16T23:28:35.606Z,68.40
2023-02-16T23:31:03.438Z,67.91
2023-02-16T23:33:31.194Z,67.18
2023-02-16T23:35:59.119Z,67.29
2023-02-16T23:38:26.831Z,66.40
2023-02-16T23:40:58.639Z,66.92
2023-02-16T23:43:27.864Z,66.76
2023-02-16T23:45:56.311Z,66.34
2023-02-16T23:48:24.847Z,66.53
2023-02-16T23:50:53.490Z,66.09
2023-02-16T23:53:22.574Z,67.00
2023-02-16T23:55:57.946Z,67.17
2023-02-16T23:58:28.687Z,68.40
